»·PEaware :: N1187 KPSP-KSNA

N1187 :: KPSP-KSNA

FLIGHT INFORMATION

Flight Status: Arrived
Operator: Privately registered:
United States
More flights under this callsign
Pilot: Branden L. (12254)
Aircraft: PILATUS PC-12 EAGLE
(PC12)
More flights by this aircraft type
Origin: KPSP Palm Springs Intl
United States
Destination: KSNA John Wayne-Orange Co
United States
More flights between these airports :: More routes between these airports
Route: CATH1 PSP V388 DEWAY HDF KAYOH7
File this flight plan on PilotEdge
Remarks: TEC Route PSPP8B
Altitude:
(Current/Filed)
10,000ft
Speed:
(Current/Filed)
200kts
Departed: 22-Apr-19 06:32 PM
Arrived: 22-Apr-19 07:07 PM
Distance/Time
Traveled:
69nm/0:34
Distance/Time
To Go:
Arrived

Flight Plot

Page will automatically refresh every two minutes.


Map Options




Map Legend


Flown Route
Filed Route
Departure Airport
Arrival Airport
Navaid (VOR, NDB)
Fix

Horizontal Profiles

Position Reports

Time Latitude Longitude Heading Altitude Ground
Speed
22-Apr-19 18:16 33.828873 -116.511058 178 429ft 0kts
22-Apr-19 18:17 33.828873 -116.511058 178 429ft 0kts
22-Apr-19 18:18 33.828873 -116.511058 178 429ft 0kts
22-Apr-19 18:19 33.828873 -116.511058 178 429ft 0kts
22-Apr-19 18:20 33.828873 -116.511058 178 429ft 0kts
22-Apr-19 18:21 33.828873 -116.511058 178 429ft 0kts
22-Apr-19 18:22 33.828873 -116.511058 178 429ft 0kts
22-Apr-19 18:23 33.828873 -116.511058 178 429ft 0kts
22-Apr-19 18:24 33.828873 -116.511058 178 429ft 0kts
22-Apr-19 18:25 33.828873 -116.511058 178 429ft 0kts
22-Apr-19 18:26 33.828873 -116.511058 178 429ft 0kts
22-Apr-19 18:27 33.828873 -116.511058 178 429ft 0kts
22-Apr-19 18:28 33.828578 -116.508748 129 425ft 13kts
22-Apr-19 18:29 33.823164 -116.503898 145 408ft 29kts
22-Apr-19 18:30 33.818530 -116.499049 90 395ft 0kts
22-Apr-19 18:31 33.820379 -116.499403 321 397ft 58kts
22-Apr-19 18:32 33.844914 -116.522071 320 1862ft 124kts
22-Apr-19 18:33 33.871992 -116.549062 321 3860ft 137kts
22-Apr-19 18:34 33.908174 -116.561301 48 5405ft 179kts
22-Apr-19 18:35 33.895518 -116.500394 109 6901ft 207kts
22-Apr-19 18:36 33.869298 -116.428125 112 6999ft 255kts
22-Apr-19 18:37 33.838543 -116.355768 112 8457ft 228kts
22-Apr-19 18:38 33.810335 -116.289590 112 10050ft 216kts
22-Apr-19 18:39 33.777718 -116.244725 183 11454ft 219kts
22-Apr-19 18:40 33.767415 -116.296904 314 11973ft 210kts
22-Apr-19 18:41 33.808521 -116.350400 316 11983ft 221kts
22-Apr-19 18:42 33.851005 -116.405292 316 11996ft 224kts
22-Apr-19 18:43 33.880628 -116.471764 292 11997ft 233kts
22-Apr-19 18:44 33.899668 -116.546530 291 11997ft 233kts
22-Apr-19 18:45 33.918635 -116.621324 291 11997ft 233kts
22-Apr-19 18:46 33.937544 -116.696100 291 12010ft 233kts
22-Apr-19 18:48 33.935617 -116.773862 250 11980ft 249kts
22-Apr-19 18:49 33.906438 -116.849515 249 11999ft 248kts
22-Apr-19 18:50 33.877237 -116.925137 249 12000ft 249kts
22-Apr-19 18:51 33.847844 -117.001093 250 11999ft 251kts
22-Apr-19 18:52 33.818033 -117.077965 250 12006ft 253kts
22-Apr-19 18:53 33.787877 -117.155505 250 11722ft 261kts
22-Apr-19 18:54 33.777025 -117.240166 276 10313ft 260kts
22-Apr-19 18:55 33.777893 -117.326668 275 8904ft 257kts
22-Apr-19 18:56 33.778608 -117.410452 275 8000ft 235kts
22-Apr-19 18:57 33.779374 -117.485641 276 7988ft 217kts
22-Apr-19 18:58 33.779981 -117.557218 276 7987ft 210kts
22-Apr-19 18:59 33.784688 -117.625723 299 7777ft 207kts
22-Apr-19 19:00 33.814026 -117.687983 301 6759ft 215kts
22-Apr-19 19:01 33.844812 -117.747871 301 5752ft 205kts
22-Apr-19 19:02 33.848239 -117.803999 199 4786ft 205kts
22-Apr-19 19:03 33.793846 -117.812604 201 3119ft 195kts
22-Apr-19 19:04 33.745048 -117.826681 193 1456ft 168kts
22-Apr-19 19:05 33.707022 -117.848788 207 650ft 140kts
22-Apr-19 19:06 33.675565 -117.868911 207 60ft 90kts
22-Apr-19 19:07 33.673652 -117.871627 28 60ft 22kts
22-Apr-19 19:08 33.675180 -117.871575 210 60ft 0kts
22-Apr-19 19:09 33.675180 -117.871575 210 60ft 0kts
22-Apr-19 19:10 33.675180 -117.871575 210 60ft 0kts
22-Apr-19 19:11 33.675180 -117.871575 210 60ft 0kts
22-Apr-19 19:11 33.675180 -117.871575 210 60ft 0kts

Navigation Log

Ident Type
Flight plan parsing failed, navigation log unavailable